createdAt,value
2022-11-02T00:01:23.720Z,12.70
2022-11-02T00:03:56.580Z,12.70
2022-11-02T00:06:29.726Z,12.70
2022-11-02T00:09:06.170Z,12.70
2022-11-02T00:11:37.513Z,12.80
2022-11-02T00:14:07.982Z,12.80
2022-11-02T00:16:42.756Z,12.80
2022-11-02T00:19:18.386Z,12.80
2022-11-02T00:21:48.881Z,12.90
2022-11-02T00:24:19.000Z,12.90
2022-11-02T00:26:49.101Z,12.80
2022-11-02T00:29:23.559Z,12.70
2022-11-02T00:32:02.882Z,12.70
2022-11-02T00:34:39.259Z,12.60
2022-11-02T00:37:09.314Z,12.60
2022-11-02T00:39:39.437Z,12.70
2022-11-02T00:42:09.818Z,12.60
2022-11-02T00:44:45.592Z,12.70
2022-11-02T00:47:21.606Z,12.80
2022-11-02T00:49:59.434Z,12.80
2022-11-02T00:52:29.532Z,12.70
2022-11-02T00:55:02.730Z,12.70
2022-11-02T00:57:35.855Z,12.80
2022-11-02T01:00:06.225Z,12.80
2022-11-02T01:02:36.872Z,12.80
2022-11-02T01:05:14.162Z,12.80
2022-11-02T01:07:51.846Z,12.80
2022-11-02T01:10:22.175Z,12.70
2022-11-02T01:12:53.445Z,12.70
2022-11-02T01:15:23.745Z,12.70
2022-11-02T01:17:56.949Z,12.60
2022-11-02T01:20:29.606Z,12.70
2022-11-02T01:23:01.221Z,12.70
2022-11-02T01:25:34.121Z,12.70
2022-11-02T01:28:07.644Z,12.70
2022-11-02T01:30:37.796Z,12.70
2022-11-02T01:33:08.948Z,12.80
2022-11-02T01:35:42.954Z,12.90
2022-11-02T01:38:13.378Z,12.80
2022-11-02T01:40:43.921Z,12.90
2022-11-02T01:43:33.761Z,12.80
2022-11-02T01:46:16.241Z,12.80
2022-11-02T01:48:50.674Z,12.90
2022-11-02T01:51:29.895Z,12.90
2022-11-02T01:54:08.790Z,12.80
2022-11-02T01:56:43.909Z,12.80
2022-11-02T01:59:19.375Z,12.70
2022-11-02T02:01:49.754Z,12.60
2022-11-02T02:04:20.427Z,12.60
2022-11-02T02:06:55.684Z,12.60
2022-11-02T02:09:28.195Z,12.60
2022-11-02T02:12:00.801Z,12.60
2022-11-02T02:14:31.096Z,12.70
2022-11-02T02:17:29.047Z,12.70
2022-11-02T02:20:06.342Z,12.70
2022-11-02T02:23:31.173Z,12.60
2022-11-02T02:26:50.462Z,12.40
2022-11-02T02:29:27.290Z,12.40
2022-11-02T02:32:05.666Z,12.30
2022-11-02T02:34:45.964Z,12.30
2022-11-02T02:37:24.674Z,12.10
2022-11-02T02:40:07.624Z,12.10
2022-11-02T02:42:43.951Z,12.00
2022-11-02T02:45:27.348Z,12.00
2022-11-02T02:48:08.733Z,11.90
2022-11-02T02:50:51.517Z,11.80
2022-11-02T02:53:28.288Z,11.80
2022-11-02T02:56:03.326Z,11.80
2022-11-02T02:58:41.650Z,11.80
2022-11-02T03:01:17.261Z,11.80
2022-11-02T03:03:48.276Z,11.80
2022-11-02T03:06:30.862Z,11.70
2022-11-02T03:09:12.694Z,11.70
2022-11-02T03:11:57.352Z,11.70
2022-11-02T03:14:46.470Z,11.70
2022-11-02T03:17:33.922Z,11.60
2022-11-02T03:20:24.008Z,11.50
2022-11-02T03:23:09.157Z,11.50
2022-11-02T03:25:52.586Z,11.60
2022-11-02T03:28:56.668Z,11.60
2022-11-02T03:31:40.500Z,11.60
2022-11-02T03:34:27.333Z,11.70
2022-11-02T03:37:11.344Z,11.60
2022-11-02T03:39:47.081Z,11.60
2022-11-02T03:42:26.213Z,11.60
2022-11-02T03:45:04.805Z,11.70
2022-11-02T03:47:41.794Z,11.60
2022-11-02T03:50:17.935Z,11.60
2022-11-02T03:52:51.034Z,11.50
2022-11-02T03:55:31.375Z,11.50
2022-11-02T03:58:07.451Z,11.40
2022-11-02T04:00:39.526Z,11.40
2022-11-02T04:03:09.805Z,11.30
2022-11-02T04:05:52.603Z,11.20
2022-11-02T04:08:32.953Z,11.20
2022-11-02T04:11:15.507Z,11.20
2022-11-02T04:13:58.045Z,11.20
2022-11-02T04:16:28.509Z,11.20
2022-11-02T04:19:11.339Z,11.20
2022-11-02T04:22:03.322Z,11.10
2022-11-02T04:24:57.936Z,11.10
2022-11-02T04:27:28.476Z,11.20
2022-11-02T04:29:58.610Z,11.20
2022-11-02T04:32:41.098Z,11.20
2022-11-02T04:35:12.735Z,11.20
2022-11-02T04:38:00.270Z,11.30
2022-11-02T04:40:30.808Z,11.30
2022-11-02T04:43:00.939Z,11.30
2022-11-02T04:45:31.196Z,11.30
2022-11-02T04:48:04.181Z,11.30
2022-11-02T04:50:35.169Z,11.50
2022-11-02T04:53:09.848Z,11.50
2022-11-02T04:55:42.951Z,11.60
2022-11-02T04:58:13.025Z,11.60
2022-11-02T05:00:43.144Z,11.70
2022-11-02T05:03:13.264Z,11.80
2022-11-02T05:05:43.658Z,11.80
2022-11-02T05:08:19.446Z,11.80
2022-11-02T05:10:49.652Z,11.70
2022-11-02T05:13:21.998Z,11.70
2022-11-02T05:15:52.121Z,11.70
2022-11-02T05:21:13.997Z,11.60
2022-11-02T05:23:48.925Z,11.50
2022-11-02T05:26:21.809Z,11.50
2022-11-02T05:28:52.742Z,11.50
2022-11-02T05:31:22.804Z,11.40
2022-11-02T05:33:53.074Z,11.40
2022-11-02T05:36:23.194Z,11.50
2022-11-02T05:38:58.913Z,11.50
2022-11-02T05:41:29.044Z,11.40
2022-11-02T05:43:59.223Z,11.30
2022-11-02T05:46:29.560Z,11.40
2022-11-02T05:48:59.682Z,11.30
2022-11-02T05:51:29.881Z,11.30
2022-11-02T05:54:05.532Z,11.30
2022-11-02T05:56:35.598Z,11.40
2022-11-02T05:59:05.809Z,11.40
2022-11-02T06:01:39.189Z,11.30
2022-11-02T06:04:09.655Z,11.30
2022-11-02T06:06:39.774Z,11.30
2022-11-02T06:09:15.570Z,11.30
2022-11-02T06:11:48.375Z,11.30
2022-11-02T06:14:18.496Z,11.40
2022-11-02T06:16:48.545Z,11.40
2022-11-02T06:19:21.260Z,11.40
2022-11-02T06:21:51.403Z,11.40
2022-11-02T06:24:26.459Z,11.40
2022-11-02T06:26:58.147Z,11.40
2022-11-02T06:29:28.278Z,11.40
2022-11-02T06:31:58.366Z,11.30
2022-11-02T06:34:28.448Z,11.30
2022-11-02T06:36:58.556Z,11.40
2022-11-02T06:39:31.284Z,11.50
2022-11-02T06:42:04.083Z,11.50
2022-11-02T06:44:36.504Z,11.50
2022-11-02T06:47:09.817Z,11.50
2022-11-02T06:49:42.717Z,11.60
2022-11-02T06:52:12.948Z,11.60
2022-11-02T06:54:45.638Z,11.60
2022-11-02T06:57:15.697Z,11.70
2022-11-02T06:59:49.989Z,11.70
2022-11-02T07:02:23.829Z,11.80
2022-11-02T07:04:53.914Z,11.80
2022-11-02T07:07:23.996Z,11.90
2022-11-02T07:09:56.701Z,12.00
2022-11-02T07:12:26.891Z,12.10
2022-11-02T07:14:59.961Z,12.10
2022-11-02T07:17:33.063Z,12.10
2022-11-02T07:20:05.234Z,12.10
2022-11-02T07:22:35.617Z,12.20
2022-11-02T07:25:13.984Z,12.20
2022-11-02T07:27:48.789Z,12.30
2022-11-02T07:30:19.635Z,12.30
2022-11-02T07:32:52.819Z,12.40
2022-11-02T07:35:25.871Z,12.60
2022-11-02T07:38:03.218Z,12.70
2022-11-02T07:40:39.670Z,12.90
2022-11-02T07:43:10.752Z,13.40
2022-11-02T07:45:40.970Z,14.20
2022-11-02T07:48:11.747Z,15.00
2022-11-02T07:50:42.134Z,16.50
2022-11-02T07:53:12.945Z,17.70
2022-11-02T07:55:48.136Z,18.70
2022-11-02T07:58:21.034Z,19.60
2022-11-02T08:00:53.795Z,20.30
2022-11-02T08:03:26.259Z,21.30
2022-11-02T08:05:56.809Z,21.50
2022-11-02T08:08:27.868Z,22.10
2022-11-02T08:11:10.826Z,22.40
2022-11-02T08:13:41.508Z,23.20
2022-11-02T08:16:17.463Z,23.30
2022-11-02T08:18:47.900Z,23.90
2022-11-02T08:21:25.824Z,23.50
2022-11-02T08:24:01.627Z,23.20
2022-11-02T08:26:34.413Z,22.20
2022-11-02T08:29:07.730Z,21.00
2022-11-02T08:31:38.153Z,20.60
2022-11-02T08:34:14.483Z,19.90
2022-11-02T08:36:44.777Z,19.70
2022-11-02T08:39:18.963Z,20.30
2022-11-02T08:41:55.124Z,21.70
2022-11-02T08:44:31.079Z,22.40
2022-11-02T08:47:03.114Z,23.40
2022-11-02T08:49:35.715Z,24.10
2022-11-02T08:52:08.950Z,23.80
2022-11-02T08:54:39.323Z,24.00
2022-11-02T08:57:21.012Z,24.40
2022-11-02T08:59:51.247Z,24.10
2022-11-02T09:02:21.483Z,24.80
2022-11-02T09:04:54.206Z,25.00
2022-11-02T09:07:24.621Z,24.20
2022-11-02T09:09:54.909Z,24.50
2022-11-02T09:12:27.673Z,25.20
2022-11-02T09:15:00.787Z,24.80
2022-11-02T09:17:32.013Z,24.80
2022-11-02T09:20:02.255Z,24.80
2022-11-02T09:22:33.152Z,24.80
2022-11-02T09:25:05.754Z,25.00
2022-11-02T09:27:40.930Z,25.10
2022-11-02T09:30:16.203Z,24.50
2022-11-02T09:32:46.555Z,23.00
2022-11-02T09:35:17.009Z,22.50
2022-11-02T09:37:50.124Z,22.30
2022-11-02T09:40:25.710Z,22.40
2022-11-02T09:43:28.227Z,22.60
2022-11-02T09:46:10.816Z,22.50
2022-11-02T09:48:48.457Z,22.80
2022-11-02T09:51:26.294Z,23.00
2022-11-02T09:54:13.188Z,22.90
2022-11-02T09:56:48.492Z,22.70
2022-11-02T10:02:14.307Z,22.60
2022-11-02T10:05:14.597Z,22.60
2022-11-02T10:08:23.893Z,21.30
2022-11-02T10:11:15.260Z,21.70
2022-11-02T10:13:56.675Z,21.60
2022-11-02T10:16:39.530Z,21.10
2022-11-02T10:19:18.260Z,20.60
2022-11-02T10:21:52.549Z,20.40
2022-11-02T10:24:32.978Z,19.90
2022-11-02T10:27:11.552Z,20.20
2022-11-02T10:29:55.535Z,20.20
2022-11-02T10:32:28.822Z,20.60
2022-11-02T10:35:17.558Z,21.80
2022-11-02T10:38:15.429Z,21.60
2022-11-02T10:41:15.350Z,21.10
2022-11-02T10:44:05.828Z,21.00
2022-11-02T10:47:01.059Z,21.70
2022-11-02T10:50:12.527Z,22.10
2022-11-02T10:52:46.922Z,21.30
2022-11-02T10:55:32.172Z,20.90
2022-11-02T10:58:07.762Z,20.40
2022-11-02T11:00:40.731Z,19.50
2022-11-02T11:03:14.453Z,19.00
2022-11-02T11:06:02.928Z,18.50
2022-11-02T11:08:40.930Z,18.20
2022-11-02T11:11:20.957Z,18.50
2022-11-02T11:19:54.319Z,20.40
2022-11-02T11:22:35.484Z,20.80
2022-11-02T11:25:33.256Z,21.10
2022-11-02T11:28:11.699Z,20.50
2022-11-02T11:33:35.982Z,20.60
2022-11-02T11:36:12.102Z,21.10
2022-11-02T11:38:53.574Z,20.90
2022-11-02T11:41:26.795Z,20.90
2022-11-02T11:44:05.292Z,20.80
2022-11-02T11:46:51.999Z,20.70
2022-11-02T11:52:29.939Z,20.00
2022-11-02T11:55:25.099Z,19.60
2022-11-02T11:58:09.863Z,19.00
2022-11-02T12:00:40.344Z,18.70
2022-11-02T12:03:12.811Z,18.20
2022-11-02T12:06:07.207Z,18.20
2022-11-02T12:09:03.931Z,18.10
2022-11-02T12:11:59.491Z,17.80
2022-11-02T12:14:54.293Z,17.50
2022-11-02T12:18:04.328Z,17.30
2022-11-02T12:20:58.380Z,17.30
2022-11-02T12:24:07.545Z,17.00
2022-11-02T12:27:09.833Z,16.80
2022-11-02T12:30:06.137Z,16.60
2022-11-02T12:32:52.937Z,16.50
2022-11-02T12:35:54.071Z,17.00
2022-11-02T12:39:04.376Z,17.50
2022-11-02T12:42:06.521Z,18.10
2022-11-02T12:44:56.765Z,18.30
2022-11-02T12:47:45.051Z,18.30
2022-11-02T12:50:38.633Z,18.00
2022-11-02T12:53:39.451Z,17.70
2022-11-02T12:56:16.602Z,17.40
2022-11-02T12:58:52.290Z,17.20
2022-11-02T13:01:33.983Z,17.00
2022-11-02T13:04:16.393Z,17.10
2022-11-02T13:06:54.071Z,17.50
2022-11-02T13:09:31.269Z,17.80
2022-11-02T13:12:12.645Z,17.80
2022-11-02T13:14:52.764Z,17.80
2022-11-02T13:17:36.145Z,17.90
2022-11-02T13:20:20.815Z,17.70
2022-11-02T13:23:03.323Z,17.90
2022-11-02T13:25:39.981Z,18.00
2022-11-02T13:28:21.045Z,18.10
2022-11-02T13:30:57.658Z,18.00
2022-11-02T13:33:37.552Z,17.80
2022-11-02T13:36:09.553Z,17.70
2022-11-02T13:38:47.446Z,17.60
2022-11-02T13:41:45.506Z,17.30
2022-11-02T13:45:04.343Z,17.10
2022-11-02T13:48:13.136Z,17.00
2022-11-02T13:50:51.220Z,17.00
2022-11-02T13:53:34.138Z,17.10
2022-11-02T13:56:12.881Z,17.10
2022-11-02T13:58:51.854Z,17.20
2022-11-02T14:01:27.257Z,17.10
2022-11-02T14:04:09.826Z,17.10
2022-11-02T14:06:53.581Z,17.00
2022-11-02T14:09:42.336Z,16.90
2022-11-02T14:12:47.479Z,16.80
2022-11-02T14:15:57.799Z,16.80
2022-11-02T14:18:35.332Z,16.60
2022-11-02T14:21:47.770Z,16.40
2022-11-02T14:25:03.000Z,16.30
2022-11-02T14:27:34.088Z,16.20
2022-11-02T14:30:04.416Z,16.10
2022-11-02T14:33:08.653Z,16.10
2022-11-02T14:35:50.222Z,16.10
2022-11-02T14:42:38.766Z,16.20
2022-11-02T14:45:28.225Z,16.10
2022-11-02T14:48:09.176Z,16.10
2022-11-02T14:50:39.483Z,15.90
2022-11-02T14:53:25.669Z,15.70
2022-11-02T14:55:59.890Z,15.60
2022-11-02T14:58:40.776Z,15.50
2022-11-02T15:01:18.658Z,15.50
2022-11-02T15:03:50.983Z,15.30
2022-11-02T15:06:27.251Z,15.30
2022-11-02T15:09:00.867Z,15.20
2022-11-02T15:12:03.610Z,15.10
2022-11-02T15:14:59.262Z,15.10
2022-11-02T15:18:28.890Z,15.00
2022-11-02T15:21:40.310Z,15.00
2022-11-02T15:24:22.687Z,14.80
2022-11-02T15:26:59.047Z,14.80
2022-11-02T15:29:47.033Z,14.80
2022-11-02T15:32:25.056Z,14.70
2022-11-02T15:35:00.228Z,14.60
2022-11-02T15:37:50.389Z,14.50
2022-11-02T15:40:33.254Z,14.40
2022-11-02T15:43:24.138Z,14.30
2022-11-02T15:46:11.993Z,14.30
2022-11-02T15:48:56.246Z,14.30
2022-11-02T15:51:39.708Z,14.30
2022-11-02T15:54:48.857Z,14.20
2022-11-02T15:57:34.083Z,14.20
2022-11-02T16:00:30.079Z,14.00
2022-11-02T16:03:08.667Z,14.00
2022-11-02T16:26:19.761Z,13.30
2022-11-02T16:29:01.304Z,13.20
2022-11-02T16:31:33.555Z,13.10
2022-11-02T16:34:06.557Z,13.10
2022-11-02T16:36:40.601Z,13.00
2022-11-02T16:39:22.615Z,13.00
2022-11-02T16:41:58.477Z,13.00
2022-11-02T16:44:32.073Z,12.90
2022-11-02T16:47:30.643Z,12.90
2022-11-02T16:50:02.200Z,12.90
2022-11-02T16:52:36.561Z,12.90
2022-11-02T16:55:39.578Z,12.80
2022-11-02T16:58:23.145Z,12.80
2022-11-02T17:01:00.742Z,12.70
2022-11-02T17:03:35.496Z,12.60
2022-11-02T17:06:09.672Z,12.60
2022-11-02T17:08:46.484Z,12.50
2022-11-02T17:11:19.615Z,12.40
2022-11-02T17:14:00.060Z,12.50
2022-11-02T17:16:38.667Z,12.50
2022-11-02T17:19:13.125Z,12.40
2022-11-02T17:21:47.306Z,12.30
2022-11-02T17:24:36.561Z,12.40
2022-11-02T17:27:28.848Z,12.20
2022-11-02T17:30:02.035Z,12.10
2022-11-02T17:32:32.657Z,12.10
2022-11-02T17:35:07.334Z,12.10
2022-11-02T17:37:43.769Z,12.00
2022-11-02T17:40:16.221Z,12.10
2022-11-02T17:43:07.621Z,12.00
2022-11-02T17:45:41.836Z,11.90
2022-11-02T17:48:20.571Z,11.80
2022-11-02T17:50:55.082Z,11.80
2022-11-02T17:53:26.857Z,11.80
2022-11-02T17:55:59.585Z,11.70
2022-11-02T17:58:30.254Z,11.70
2022-11-02T18:01:06.679Z,11.70
2022-11-02T18:03:37.044Z,11.70
2022-11-02T18:06:07.989Z,11.70
2022-11-02T18:08:53.745Z,11.70
2022-11-02T18:11:26.458Z,11.70
2022-11-02T18:14:06.551Z,11.60
2022-11-02T18:16:39.284Z,11.60
2022-11-02T18:19:12.191Z,11.60
2022-11-02T18:21:44.385Z,11.50
2022-11-02T18:24:14.443Z,11.40
2022-11-02T18:26:47.284Z,11.40
2022-11-02T18:29:17.428Z,11.40
2022-11-02T18:31:50.501Z,11.50
2022-11-02T18:34:21.713Z,11.50
2022-11-02T18:36:51.859Z,11.50
2022-11-02T18:39:25.145Z,11.50
2022-11-02T18:42:01.122Z,11.40
2022-11-02T18:44:31.218Z,11.40
2022-11-02T18:47:11.396Z,11.40
2022-11-02T18:49:41.551Z,11.40
2022-11-02T18:52:18.346Z,11.30
2022-11-02T18:55:03.218Z,11.30
2022-11-02T18:57:36.554Z,11.20
2022-11-02T19:00:08.328Z,11.20
2022-11-02T19:02:41.642Z,11.10
2022-11-02T19:05:32.562Z,11.20
2022-11-02T19:08:16.043Z,11.20
2022-11-02T19:10:49.338Z,11.20
2022-11-02T19:13:21.817Z,11.20
2022-11-02T19:15:51.943Z,11.20
2022-11-02T19:18:30.045Z,11.10
2022-11-02T19:21:01.115Z,11.10
2022-11-02T19:23:34.341Z,11.00
2022-11-02T19:26:04.415Z,11.00
2022-11-02T19:28:34.541Z,10.90
2022-11-02T19:31:08.269Z,10.90
2022-11-02T19:33:41.130Z,11.00
2022-11-02T19:36:11.938Z,11.00
2022-11-02T19:38:42.728Z,11.10
2022-11-02T19:41:16.659Z,11.10
2022-11-02T19:43:48.410Z,11.20
2022-11-02T19:46:24.559Z,11.10
2022-11-02T19:49:12.431Z,11.10
2022-11-02T19:51:43.067Z,11.20
2022-11-02T19:54:13.239Z,11.20
2022-11-02T19:56:43.386Z,11.10
2022-11-02T19:59:13.466Z,11.00
2022-11-02T20:01:45.632Z,11.00
2022-11-02T20:04:18.420Z,10.90
2022-11-02T20:06:48.579Z,10.90
2022-11-02T20:09:25.345Z,11.00
2022-11-02T20:11:55.443Z,11.00
2022-11-02T20:14:34.208Z,11.00
2022-11-02T20:17:29.534Z,10.90
2022-11-02T20:19:57.037Z,10.90
2022-11-02T20:22:27.140Z,10.90
2022-11-02T20:24:57.337Z,10.80
2022-11-02T20:27:30.602Z,10.90
2022-11-02T20:30:03.065Z,10.80
2022-11-02T20:32:38.402Z,10.80
2022-11-02T20:35:13.793Z,10.80
2022-11-02T20:37:51.494Z,10.80
2022-11-02T20:40:24.802Z,10.80
2022-11-02T20:42:58.536Z,10.80
2022-11-02T20:45:31.740Z,10.70
2022-11-02T20:48:05.631Z,10.70
2022-11-02T20:50:41.843Z,10.60
2022-11-02T20:53:17.281Z,10.60
2022-11-02T20:55:47.462Z,10.60
2022-11-02T20:58:17.657Z,10.60
2022-11-02T21:00:50.662Z,10.60
2022-11-02T21:03:21.739Z,10.60
2022-11-02T21:05:54.472Z,10.50
2022-11-02T21:08:24.761Z,10.40
2022-11-02T21:11:02.053Z,10.40
2022-11-02T21:13:47.709Z,10.40
2022-11-02T21:16:18.593Z,10.60
2022-11-02T21:18:48.872Z,10.50
2022-11-02T21:21:23.692Z,10.40
2022-11-02T21:23:56.308Z,10.50
2022-11-02T21:26:26.404Z,10.40
2022-11-02T21:28:56.560Z,10.40
2022-11-02T21:31:26.657Z,10.60
2022-11-02T21:33:59.538Z,10.50
2022-11-02T21:36:32.371Z,10.60
2022-11-02T21:39:02.457Z,10.50
2022-11-02T21:41:36.786Z,10.40
2022-11-02T21:44:11.672Z,10.30
2022-11-02T21:46:43.981Z,10.30
2022-11-02T21:49:14.214Z,10.30
2022-11-02T21:51:47.018Z,10.30
2022-11-02T21:54:17.183Z,10.30
2022-11-02T21:56:48.427Z,10.20
2022-11-02T21:59:18.564Z,10.40
2022-11-02T22:01:47.945Z,10.50
2022-11-02T22:04:21.665Z,10.50
2022-11-02T22:06:57.762Z,10.40
2022-11-02T22:09:29.517Z,10.40
2022-11-02T22:12:15.260Z,10.40
2022-11-02T22:14:46.805Z,10.30
2022-11-02T22:17:43.198Z,10.40
2022-11-02T22:20:08.253Z,10.40
2022-11-02T22:22:40.940Z,10.50
2022-11-02T22:25:12.111Z,10.40
2022-11-02T22:27:44.889Z,10.50
2022-11-02T22:30:16.807Z,10.50
2022-11-02T22:32:49.885Z,10.50
2022-11-02T22:35:20.912Z,10.50
2022-11-02T22:38:11.212Z,10.50
2022-11-02T22:40:44.476Z,10.50
2022-11-02T22:43:14.579Z,10.50
2022-11-02T22:45:44.697Z,10.60
2022-11-02T22:48:14.776Z,10.60
2022-11-02T22:50:47.330Z,10.60
2022-11-02T22:53:19.986Z,10.50
2022-11-02T22:56:01.177Z,10.50
2022-11-02T22:58:34.064Z,10.50
2022-11-02T23:01:07.278Z,10.40
2022-11-02T23:03:39.129Z,10.40
2022-11-02T23:06:10.805Z,10.40
2022-11-02T23:08:48.425Z,10.40
2022-11-02T23:11:24.140Z,10.30
2022-11-02T23:14:05.463Z,10.30
2022-11-02T23:16:38.490Z,10.30
2022-11-02T23:19:28.301Z,10.30
2022-11-02T23:22:16.875Z,10.30
2022-11-02T23:25:04.450Z,10.30
2022-11-02T23:27:56.561Z,10.30
2022-11-02T23:30:48.305Z,10.30
2022-11-02T23:33:19.534Z,10.40
2022-11-02T23:36:08.051Z,10.40
2022-11-02T23:38:50.438Z,10.40
2022-11-02T23:41:25.352Z,10.40
2022-11-02T23:44:21.541Z,10.30
2022-11-02T23:46:54.844Z,10.20
2022-11-02T23:49:24.986Z,10.10
2022-11-02T23:52:19.267Z,10.10
2022-11-02T23:55:04.616Z,10.10
2022-11-02T23:57:42.966Z,10.10
